createdAt,value
2019-05-25T00:00:37.818Z,57.26
2019-05-25T00:03:05.370Z,57.53
2019-05-25T00:05:33.402Z,57.77
2019-05-25T00:08:00.876Z,58.29
2019-05-25T00:10:28.363Z,58.52
2019-05-25T00:12:55.818Z,58.92
2019-05-25T00:15:23.655Z,58.33
2019-05-25T00:17:51.339Z,57.87
2019-05-25T00:20:18.815Z,58.26
2019-05-25T00:22:46.271Z,58.39
2019-05-25T00:25:13.912Z,57.92
2019-05-25T00:27:41.373Z,57.99
2019-05-25T00:30:08.919Z,58.60
2019-05-25T00:32:36.386Z,58.81
2019-05-25T00:35:03.901Z,59.08
2019-05-25T00:37:31.404Z,59.61
2019-05-25T00:39:58.859Z,60.09
2019-05-25T00:42:26.389Z,59.90
2019-05-25T00:44:53.872Z,59.85
2019-05-25T00:47:21.350Z,59.92
2019-05-25T00:49:48.948Z,60.75
2019-05-25T00:52:16.397Z,60.46
2019-05-25T00:54:43.856Z,60.47
2019-05-25T00:57:11.314Z,60.66
2019-05-25T00:59:38.903Z,60.79
2019-05-25T01:02:06.359Z,60.94
2019-05-25T01:04:33.851Z,60.81
2019-05-25T01:07:01.302Z,60.38
2019-05-25T01:09:28.772Z,60.01
2019-05-25T01:11:56.226Z,59.58
2019-05-25T01:14:23.711Z,59.42
2019-05-25T01:16:51.363Z,58.75
2019-05-25T01:19:18.898Z,58.66
2019-05-25T01:21:46.355Z,58.96
2019-05-25T01:24:13.888Z,59.14
2019-05-25T01:26:41.457Z,59.07
2019-05-25T01:29:08.978Z,59.30
2019-05-25T01:31:36.436Z,59.48
2019-05-25T01:36:37.842Z,59.54
2019-05-25T01:39:05.294Z,59.35
2019-05-25T01:41:32.751Z,59.06
2019-05-25T01:44:01.225Z,59.24
2019-05-25T01:46:28.680Z,59.04
2019-05-25T01:48:56.173Z,58.94
2019-05-25T01:51:23.658Z,59.16
2019-05-25T01:53:51.148Z,59.43
2019-05-25T01:56:18.621Z,59.26
2019-05-25T01:58:46.098Z,58.88
2019-05-25T02:01:13.705Z,58.93
2019-05-25T02:03:41.183Z,58.79
2019-05-25T02:06:08.655Z,58.70
2019-05-25T02:08:36.114Z,58.99
2019-05-25T02:11:03.634Z,58.97
2019-05-25T02:13:31.102Z,59.16
2019-05-25T02:15:58.547Z,59.08
2019-05-25T02:18:26.334Z,58.91
2019-05-25T02:20:53.797Z,59.06
2019-05-25T02:23:21.253Z,58.97
2019-05-25T02:25:48.762Z,59.05
2019-05-25T02:28:16.255Z,59.29
2019-05-25T02:30:43.786Z,59.66
2019-05-25T02:33:11.276Z,60.31
2019-05-25T02:35:38.737Z,60.88
2019-05-25T02:38:06.243Z,61.06
2019-05-25T02:40:33.715Z,61.15
2019-05-25T02:43:01.200Z,61.14
2019-05-25T02:45:28.682Z,61.13
2019-05-25T02:47:56.193Z,61.32
2019-05-25T02:50:23.669Z,61.32
2019-05-25T02:52:51.142Z,60.81
2019-05-25T02:55:33.751Z,60.69
2019-05-25T02:57:48.116Z,60.66
2019-05-25T03:00:15.968Z,60.90
2019-05-25T03:02:43.545Z,61.03
2019-05-25T03:05:11.858Z,61.35
2019-05-25T03:07:39.421Z,61.53
2019-05-25T03:10:06.924Z,61.58
2019-05-25T03:12:34.427Z,61.58
2019-05-25T03:15:02.095Z,61.76
2019-05-25T03:17:29.522Z,61.91
2019-05-25T03:19:57.135Z,62.11
2019-05-25T03:22:24.590Z,62.09
2019-05-25T03:24:52.268Z,61.96
2019-05-25T03:27:19.792Z,62.32
2019-05-25T03:29:47.245Z,62.53
2019-05-25T03:32:14.848Z,62.82
2019-05-25T03:34:42.316Z,62.96
2019-05-25T03:37:09.799Z,62.91
2019-05-25T03:39:37.266Z,62.77
2019-05-25T03:42:04.742Z,62.48
2019-05-25T03:44:32.216Z,62.16
2019-05-25T03:46:59.710Z,62.10
2019-05-25T03:49:27.197Z,62.28
2019-05-25T03:51:54.728Z,62.53
2019-05-25T03:54:22.209Z,62.76
2019-05-25T03:56:49.737Z,62.95
2019-05-25T03:59:17.253Z,63.27
2019-05-25T04:01:44.761Z,63.45
2019-05-25T04:04:12.244Z,63.32
2019-05-25T04:06:39.804Z,63.32
2019-05-25T04:09:07.497Z,63.27
2019-05-25T04:11:34.959Z,63.32
2019-05-25T04:14:02.517Z,63.01
2019-05-25T04:16:29.990Z,62.92
2019-05-25T04:18:57.438Z,62.91
2019-05-25T04:21:25.192Z,62.53
2019-05-25T04:23:52.678Z,62.19
2019-05-25T04:26:22.829Z,61.94
2019-05-25T04:28:47.695Z,62.03
2019-05-25T04:31:15.731Z,62.14
2019-05-25T04:33:43.175Z,62.09
2019-05-25T04:36:10.683Z,62.24
2019-05-25T04:38:38.217Z,62.08
2019-05-25T04:41:05.734Z,62.21
2019-05-25T04:43:33.184Z,62.44
2019-05-25T04:46:00.694Z,62.39
2019-05-25T04:48:28.197Z,62.30
2019-05-25T04:50:55.717Z,62.44
2019-05-25T04:53:23.183Z,62.22
2019-05-25T04:55:50.674Z,61.95
2019-05-25T04:58:18.166Z,61.86
2019-05-25T05:00:45.681Z,61.16
2019-05-25T05:03:13.140Z,61.42
2019-05-25T05:05:40.627Z,61.10
2019-05-25T05:08:08.206Z,61.23
2019-05-25T05:10:35.664Z,61.70
2019-05-25T05:13:03.198Z,61.58
2019-05-25T05:15:30.717Z,61.14
2019-05-25T05:17:58.188Z,60.79
2019-05-25T05:20:25.677Z,60.31
2019-05-25T05:22:53.535Z,60.25
2019-05-25T05:25:21.064Z,59.97
2019-05-25T05:27:48.511Z,59.51
2019-05-25T05:30:16.006Z,59.39
2019-05-25T05:32:43.491Z,59.78
2019-05-25T05:35:10.947Z,59.47
2019-05-25T05:37:38.396Z,59.25
2019-05-25T05:40:07.481Z,59.26
2019-05-25T05:42:34.950Z,58.89
2019-05-25T05:45:02.440Z,58.65
2019-05-25T05:47:29.941Z,58.79
2019-05-25T05:49:57.408Z,58.64
2019-05-25T05:52:24.910Z,58.66
2019-05-25T05:54:52.436Z,58.57
2019-05-25T05:57:19.912Z,58.37
2019-05-25T05:59:47.390Z,58.13
2019-05-25T06:02:14.908Z,58.02
2019-05-25T06:04:43.035Z,57.71
2019-05-25T06:07:10.547Z,57.62
2019-05-25T06:09:38.013Z,57.52
2019-05-25T06:12:05.496Z,57.65
2019-05-25T06:14:33.811Z,57.48
2019-05-25T06:17:02.144Z,57.40
2019-05-25T06:19:29.672Z,57.32
2019-05-25T06:21:57.145Z,57.22
2019-05-25T06:24:24.754Z,57.37
2019-05-25T06:26:52.202Z,57.69
2019-05-25T06:29:19.925Z,57.87
2019-05-25T06:31:47.563Z,57.74
2019-05-25T06:34:15.062Z,57.05
2019-05-25T06:36:42.522Z,56.51
2019-05-25T06:39:10.005Z,56.13
2019-05-25T06:41:37.457Z,56.05
2019-05-25T06:44:04.932Z,55.81
2019-05-25T06:46:32.398Z,55.10
2019-05-25T06:48:59.884Z,54.63
2019-05-25T06:51:27.334Z,54.35
2019-05-25T06:53:54.863Z,54.86
2019-05-25T06:56:22.494Z,55.01
2019-05-25T06:58:49.991Z,54.23
2019-05-25T07:01:17.471Z,53.24
2019-05-25T07:03:45.002Z,52.12
2019-05-25T07:06:12.512Z,51.94
2019-05-25T07:08:40.027Z,51.67
2019-05-25T07:11:07.497Z,51.95
2019-05-25T07:13:35.109Z,51.16
2019-05-25T07:16:02.772Z,50.60
2019-05-25T07:18:30.286Z,49.79
2019-05-25T07:20:58.214Z,48.68
2019-05-25T07:23:25.690Z,48.20
2019-05-25T07:25:53.342Z,47.80
2019-05-25T07:28:20.864Z,47.35
2019-05-25T07:30:48.328Z,46.84
2019-05-25T07:33:15.830Z,45.91
2019-05-25T07:35:43.323Z,45.44
2019-05-25T07:38:10.871Z,45.60
2019-05-25T07:40:38.341Z,45.27
2019-05-25T07:43:05.859Z,45.08
2019-05-25T07:45:33.552Z,44.87
2019-05-25T07:48:01.076Z,44.65
2019-05-25T07:50:28.605Z,43.63
2019-05-25T07:52:56.071Z,43.00
2019-05-25T07:55:23.537Z,42.34
2019-05-25T07:57:51.006Z,41.39
2019-05-25T08:00:18.591Z,40.31
2019-05-25T08:02:46.240Z,39.56
2019-05-25T08:05:13.861Z,38.57
2019-05-25T08:07:41.795Z,37.85
2019-05-25T08:10:09.295Z,37.20
2019-05-25T08:12:36.289Z,37.08
2019-05-25T08:15:03.902Z,36.11
2019-05-25T08:17:32.279Z,35.68
2019-05-25T08:19:59.737Z,34.47
2019-05-25T08:22:27.230Z,35.42
2019-05-25T08:24:54.697Z,35.95
2019-05-25T08:27:23.188Z,36.06
2019-05-25T08:29:50.677Z,36.54
2019-05-25T08:32:18.132Z,36.98
2019-05-25T08:34:45.617Z,36.61
2019-05-25T08:37:13.069Z,35.77
2019-05-25T08:39:40.533Z,35.50
2019-05-25T08:42:08.090Z,35.44
2019-05-25T08:44:35.565Z,35.46
2019-05-25T08:47:03.095Z,36.01
2019-05-25T08:49:30.541Z,36.19
2019-05-25T08:51:58.050Z,36.72
2019-05-25T08:54:25.524Z,37.07
2019-05-25T08:56:53.155Z,37.07
2019-05-25T08:59:20.655Z,37.25
2019-05-25T09:01:48.225Z,37.57
2019-05-25T09:04:15.678Z,38.34
2019-05-25T09:06:43.169Z,38.59
2019-05-25T09:09:10.773Z,37.56
2019-05-25T09:11:38.280Z,36.32
2019-05-25T09:14:05.788Z,36.16
2019-05-25T09:16:33.234Z,36.44
2019-05-25T09:19:00.719Z,37.21
2019-05-25T09:21:28.227Z,37.74
2019-05-25T09:23:55.715Z,38.28
2019-05-25T09:26:23.250Z,37.74
2019-05-25T09:29:03.481Z,36.86
2019-05-25T09:31:18.387Z,35.80
2019-05-25T09:33:45.907Z,35.02
2019-05-25T09:36:13.388Z,35.10
2019-05-25T09:38:43.279Z,34.70
2019-05-25T09:41:08.582Z,34.93
2019-05-25T09:43:36.051Z,35.80
2019-05-25T09:46:03.612Z,35.46
2019-05-25T09:48:31.090Z,35.02
2019-05-25T09:50:58.709Z,35.12
2019-05-25T09:53:26.226Z,35.04
2019-05-25T09:55:53.789Z,33.75
2019-05-25T09:58:21.251Z,32.94
2019-05-25T10:00:48.710Z,32.60
2019-05-25T10:03:16.182Z,32.37
2019-05-25T10:05:43.676Z,32.93
2019-05-25T10:08:11.187Z,33.91
2019-05-25T10:10:38.634Z,34.16
2019-05-25T10:13:06.092Z,34.56
2019-05-25T10:15:33.629Z,34.63
2019-05-25T10:18:01.071Z,34.21
2019-05-25T10:20:29.310Z,33.92
2019-05-25T10:22:56.878Z,32.95
2019-05-25T10:25:24.399Z,31.72
2019-05-25T10:27:51.390Z,31.06
2019-05-25T10:30:18.978Z,31.10
2019-05-25T10:32:46.474Z,31.30
2019-05-25T10:35:13.995Z,31.48
2019-05-25T10:37:41.520Z,31.29
2019-05-25T10:40:08.997Z,30.99
2019-05-25T10:42:36.502Z,31.32
2019-05-25T10:45:04.912Z,31.75
2019-05-25T10:47:32.379Z,31.13
2019-05-25T10:49:59.875Z,30.55
2019-05-25T10:52:27.353Z,30.08
2019-05-25T10:54:54.867Z,29.95
2019-05-25T10:57:22.339Z,30.12
2019-05-25T10:59:52.819Z,30.29
2019-05-25T11:02:17.325Z,31.09
2019-05-25T11:04:44.808Z,31.45
2019-05-25T11:07:12.386Z,31.17
2019-05-25T11:09:39.958Z,31.19
2019-05-25T11:12:07.428Z,32.05
2019-05-25T11:14:34.945Z,32.62
2019-05-25T11:17:02.396Z,32.56
2019-05-25T11:19:30.050Z,32.91
2019-05-25T11:21:57.509Z,33.54
2019-05-25T11:24:25.008Z,33.22
2019-05-25T11:26:52.531Z,33.42
2019-05-25T11:29:20.124Z,32.73
2019-05-25T11:31:55.289Z,32.90
2019-05-25T11:34:15.296Z,32.50
2019-05-25T11:36:43.046Z,32.26
2019-05-25T11:39:10.730Z,32.20
2019-05-25T11:41:38.224Z,32.19
2019-05-25T11:44:05.750Z,32.48
2019-05-25T11:46:33.910Z,32.39
2019-05-25T11:49:01.507Z,32.54
2019-05-25T11:51:29.033Z,32.19
2019-05-25T11:53:56.498Z,32.50
2019-05-25T11:56:23.991Z,32.75
2019-05-25T11:58:51.593Z,33.08
2019-05-25T12:01:19.046Z,32.81
2019-05-25T12:03:46.532Z,33.77
2019-05-25T12:06:13.991Z,33.65
2019-05-25T12:08:41.512Z,34.18
2019-05-25T12:11:09.076Z,34.01
2019-05-25T12:13:36.867Z,33.93
2019-05-25T12:16:04.388Z,33.70
2019-05-25T12:18:32.048Z,33.01
2019-05-25T12:20:59.532Z,32.84
2019-05-25T12:23:27.002Z,32.96
2019-05-25T12:25:54.456Z,32.70
2019-05-25T12:28:22.044Z,32.46
2019-05-25T12:30:49.514Z,32.49
2019-05-25T12:33:17.312Z,32.16
2019-05-25T12:35:45.349Z,32.00
2019-05-25T12:38:12.246Z,32.22
2019-05-25T12:40:52.847Z,31.55
2019-05-25T12:43:07.434Z,32.02
2019-05-25T12:45:35.000Z,32.30
2019-05-25T12:48:02.687Z,33.38
2019-05-25T12:50:30.160Z,33.50
2019-05-25T12:52:57.732Z,33.60
2019-05-25T12:55:25.964Z,34.29
2019-05-25T12:57:53.427Z,34.81
2019-05-25T13:00:22.160Z,34.85
2019-05-25T13:02:49.770Z,35.07
2019-05-25T13:05:31.165Z,35.18
2019-05-25T13:07:45.028Z,35.38
2019-05-25T13:10:12.578Z,36.17
2019-05-25T13:12:40.106Z,36.54
2019-05-25T13:15:07.575Z,36.94
2019-05-25T13:17:35.065Z,37.03
2019-05-25T13:20:02.607Z,37.47
2019-05-25T13:22:30.063Z,37.75
2019-05-25T13:24:57.554Z,37.96
2019-05-25T13:27:25.079Z,38.56
2019-05-25T13:29:52.531Z,38.40
2019-05-25T13:32:20.020Z,38.13
2019-05-25T13:34:47.715Z,38.79
2019-05-25T13:37:17.722Z,38.57
2019-05-25T13:39:42.762Z,38.06
2019-05-25T13:42:10.251Z,37.55
2019-05-25T13:44:37.915Z,37.15
2019-05-25T13:47:05.484Z,37.37
2019-05-25T13:49:33.436Z,36.95
2019-05-25T13:52:00.898Z,37.40
2019-05-25T13:54:28.402Z,37.71
2019-05-25T13:56:55.877Z,37.51
2019-05-25T13:59:23.342Z,37.52
2019-05-25T14:01:50.830Z,37.66
2019-05-25T14:04:18.305Z,37.87
2019-05-25T14:06:45.816Z,38.24
2019-05-25T14:09:15.851Z,38.74
2019-05-25T14:11:40.899Z,39.47
2019-05-25T14:14:08.370Z,39.77
2019-05-25T14:16:35.837Z,39.55
2019-05-25T14:19:03.346Z,40.14
2019-05-25T14:21:30.865Z,40.04
2019-05-25T14:23:58.354Z,39.84
2019-05-25T14:26:26.009Z,41.19
2019-05-25T14:28:53.590Z,42.27
2019-05-25T14:31:21.060Z,42.49
2019-05-25T14:33:49.490Z,44.06
2019-05-25T14:36:17.485Z,46.92
2019-05-25T14:38:44.979Z,48.31
2019-05-25T14:41:12.564Z,49.05
2019-05-25T14:43:40.031Z,49.35
2019-05-25T14:46:07.514Z,49.20
2019-05-25T14:48:34.501Z,48.12
2019-05-25T14:51:01.561Z,49.49
2019-05-25T14:53:28.571Z,48.98
2019-05-25T14:55:55.627Z,48.36
2019-05-25T14:58:23.076Z,48.68
2019-05-25T15:00:50.557Z,50.04
2019-05-25T15:03:18.151Z,50.83
2019-05-25T15:05:45.767Z,51.11
2019-05-25T15:08:13.439Z,52.26
2019-05-25T15:10:40.985Z,52.03
2019-05-25T15:13:08.442Z,53.29
2019-05-25T15:15:36.067Z,54.90
2019-05-25T15:18:03.539Z,56.68
2019-05-25T15:20:31.071Z,58.08
2019-05-25T15:22:58.636Z,59.33
2019-05-25T15:25:26.116Z,60.82
2019-05-25T15:27:53.599Z,61.38
2019-05-25T15:30:21.096Z,61.33
2019-05-25T15:32:48.591Z,60.63
2019-05-25T15:35:19.819Z,60.28
2019-05-25T15:37:43.584Z,61.22
2019-05-25T15:40:11.090Z,62.16
2019-05-25T15:42:38.559Z,62.44
2019-05-25T15:45:06.103Z,62.32
2019-05-25T15:47:33.568Z,62.21
2019-05-25T15:50:01.104Z,61.69
2019-05-25T15:52:28.683Z,60.71
2019-05-25T15:54:56.165Z,60.92
2019-05-25T15:57:23.629Z,61.79
2019-05-25T15:59:51.767Z,62.51
2019-05-25T16:02:33.881Z,63.12
2019-05-25T16:04:46.610Z,63.66
2019-05-25T16:07:14.108Z,63.78
2019-05-25T16:09:41.641Z,64.99
2019-05-25T16:12:09.135Z,66.26
2019-05-25T16:14:36.695Z,68.16
2019-05-25T16:17:04.166Z,69.04
2019-05-25T16:19:31.670Z,71.52
2019-05-25T16:21:59.109Z,71.81
2019-05-25T16:24:26.576Z,73.53
2019-05-25T16:26:54.046Z,73.29
2019-05-25T16:29:21.523Z,74.30
2019-05-25T16:31:48.975Z,75.75
2019-05-25T16:34:16.466Z,75.28
2019-05-25T16:36:43.957Z,72.84
2019-05-25T16:39:11.514Z,72.54
2019-05-25T16:41:38.971Z,72.59
2019-05-25T16:44:06.452Z,73.36
2019-05-25T16:46:34.021Z,73.15
2019-05-25T16:49:01.486Z,73.13
2019-05-25T16:51:28.939Z,72.87
2019-05-25T16:53:56.436Z,72.14
2019-05-25T16:56:23.919Z,72.47
2019-05-25T16:58:51.404Z,73.04
2019-05-25T17:01:18.863Z,73.70
2019-05-25T17:03:46.406Z,73.74
2019-05-25T17:06:13.852Z,73.91
2019-05-25T17:08:41.392Z,73.94
2019-05-25T17:11:08.923Z,73.95
2019-05-25T17:13:36.433Z,73.72
2019-05-25T17:16:03.953Z,72.79
2019-05-25T17:18:31.428Z,71.88
2019-05-25T17:20:58.912Z,72.28
2019-05-25T17:23:26.402Z,72.06
2019-05-25T17:25:53.843Z,72.73
2019-05-25T17:28:21.461Z,72.46
2019-05-25T17:30:48.935Z,72.36
2019-05-25T17:33:16.484Z,72.51
2019-05-25T17:35:44.013Z,73.41
2019-05-25T17:38:11.475Z,72.88
2019-05-25T17:40:38.924Z,73.19
2019-05-25T17:43:06.427Z,73.13
2019-05-25T17:45:33.913Z,72.51
2019-05-25T17:48:01.375Z,72.09
2019-05-25T17:50:28.935Z,71.86
2019-05-25T17:52:56.459Z,71.35
2019-05-25T17:55:23.966Z,71.71
2019-05-25T17:57:51.579Z,71.75
2019-05-25T18:00:35.932Z,71.12
2019-05-25T18:03:03.397Z,70.28
2019-05-25T18:05:30.918Z,70.39
2019-05-25T18:07:58.410Z,70.79
2019-05-25T18:10:25.908Z,71.51
2019-05-25T18:12:53.642Z,71.60
2019-05-25T18:15:21.147Z,70.99
2019-05-25T18:17:48.670Z,70.97
2019-05-25T18:20:16.176Z,71.85
2019-05-25T18:22:43.722Z,72.00
2019-05-25T18:25:11.213Z,72.52
2019-05-25T18:27:38.708Z,72.23
2019-05-25T18:30:06.178Z,71.76
2019-05-25T18:32:33.752Z,72.09
2019-05-25T18:35:01.453Z,73.50
2019-05-25T18:37:29.078Z,73.63
2019-05-25T18:39:56.550Z,73.16
2019-05-25T18:42:24.042Z,73.69
2019-05-25T18:44:51.498Z,72.29
2019-05-25T18:47:18.983Z,70.67
2019-05-25T18:49:47.007Z,71.60
2019-05-25T18:52:14.531Z,72.79
2019-05-25T18:54:42.033Z,71.76
2019-05-25T18:57:09.834Z,72.09
2019-05-25T18:59:37.335Z,73.28
2019-05-25T19:02:05.404Z,74.08
2019-05-25T19:04:45.299Z,74.64
2019-05-25T19:07:00.687Z,74.90
2019-05-25T19:09:28.341Z,75.13
2019-05-25T19:11:55.816Z,75.02
2019-05-25T19:14:23.439Z,75.30
2019-05-25T19:16:50.923Z,75.67
2019-05-25T19:19:18.652Z,75.74
2019-05-25T19:21:46.169Z,76.22
2019-05-25T19:24:13.638Z,76.43
2019-05-25T19:26:41.111Z,76.54
2019-05-25T19:29:08.625Z,76.95
2019-05-25T19:34:08.864Z,74.72
2019-05-25T19:36:36.320Z,74.64
2019-05-25T19:39:03.830Z,74.70
2019-05-25T19:41:31.273Z,75.28
2019-05-25T19:43:58.819Z,75.51
2019-05-25T19:46:26.318Z,76.20
2019-05-25T19:48:53.826Z,76.87
2019-05-25T19:51:21.318Z,76.95
2019-05-25T19:53:48.807Z,77.03
2019-05-25T19:56:16.280Z,77.17
2019-05-25T19:58:43.746Z,77.54
2019-05-25T20:01:11.216Z,77.17
2019-05-25T20:03:38.766Z,76.99
2019-05-25T20:06:06.227Z,76.85
2019-05-25T20:08:34.466Z,77.36
2019-05-25T20:11:01.954Z,77.66
2019-05-25T20:13:29.470Z,77.69
2019-05-25T20:15:57.027Z,77.82
2019-05-25T20:18:24.523Z,78.15
2019-05-25T20:20:51.987Z,77.67
2019-05-25T20:23:19.522Z,77.77
2019-05-25T20:25:47.305Z,77.65
2019-05-25T20:28:16.338Z,78.19
2019-05-25T20:30:43.892Z,78.72
2019-05-25T20:33:11.980Z,78.18
2019-05-25T20:35:39.498Z,78.95
2019-05-25T20:38:07.412Z,78.37
2019-05-25T20:40:34.918Z,77.90
2019-05-25T20:43:02.516Z,78.68
2019-05-25T20:45:30.020Z,78.59
2019-05-25T20:47:57.502Z,78.45
2019-05-25T20:50:25.253Z,78.46
2019-05-25T20:52:52.803Z,78.73
2019-05-25T20:55:20.295Z,78.15
2019-05-25T20:57:47.853Z,78.32
2019-05-25T21:00:15.408Z,78.97
2019-05-25T21:02:42.970Z,79.39
2019-05-25T21:05:10.558Z,79.65
2019-05-25T21:07:38.223Z,80.07
2019-05-25T21:10:07.815Z,80.07
2019-05-25T21:12:35.330Z,79.99
2019-05-25T21:15:02.922Z,79.90
2019-05-25T21:17:30.463Z,79.62
2019-05-25T21:19:58.148Z,79.34
2019-05-25T21:22:25.667Z,79.13
2019-05-25T21:24:53.228Z,79.17
2019-05-25T21:27:20.799Z,78.96
2019-05-25T21:29:48.311Z,79.52
2019-05-25T21:34:49.141Z,79.20
2019-05-25T21:37:16.638Z,78.42
2019-05-25T21:39:44.141Z,77.69
2019-05-25T21:42:11.672Z,77.16
2019-05-25T21:44:39.165Z,76.29
2019-05-25T21:47:06.670Z,76.14
2019-05-25T21:49:34.122Z,76.54
2019-05-25T21:52:01.602Z,76.91
2019-05-25T21:54:29.085Z,76.59
2019-05-25T21:56:57.074Z,77.11
2019-05-25T21:59:24.524Z,76.55
2019-05-25T22:01:52.025Z,76.28
2019-05-25T22:04:19.624Z,76.84
2019-05-25T22:06:47.182Z,76.73
2019-05-25T22:09:14.668Z,76.71
2019-05-25T22:11:42.138Z,76.11
2019-05-25T22:14:09.634Z,75.85
2019-05-25T22:16:37.128Z,75.66
2019-05-25T22:19:04.590Z,75.99
2019-05-25T22:21:32.171Z,76.75
2019-05-25T22:23:59.643Z,76.72
2019-05-25T22:26:27.219Z,76.37
2019-05-25T22:28:54.772Z,76.22
2019-05-25T22:31:22.294Z,76.38
2019-05-25T22:33:49.777Z,76.64
2019-05-25T22:36:17.357Z,76.94
2019-05-25T22:38:44.929Z,76.89
2019-05-25T22:41:12.441Z,77.17
2019-05-25T22:43:39.905Z,77.27
2019-05-25T22:46:07.390Z,77.22
2019-05-25T22:48:34.917Z,76.97
2019-05-25T22:51:02.451Z,77.10
2019-05-25T22:53:29.941Z,76.87
2019-05-25T22:55:57.504Z,75.20
2019-05-25T22:58:24.960Z,75.20
2019-05-25T23:00:52.406Z,75.42
2019-05-25T23:03:19.860Z,75.69
2019-05-25T23:05:47.375Z,75.75
2019-05-25T23:08:15.157Z,75.57
2019-05-25T23:10:42.611Z,75.42
2019-05-25T23:13:10.050Z,75.91
2019-05-25T23:15:37.607Z,75.70
2019-05-25T23:18:05.756Z,75.87
2019-05-25T23:20:36.380Z,75.81
2019-05-25T23:23:00.779Z,75.77
2019-05-25T23:25:28.267Z,75.68
2019-05-25T23:27:55.747Z,75.37
2019-05-25T23:30:23.589Z,75.55
2019-05-25T23:32:51.189Z,75.11
2019-05-25T23:35:18.670Z,74.79
2019-05-25T23:37:46.269Z,74.87
2019-05-25T23:40:13.788Z,74.77
2019-05-25T23:42:41.237Z,74.96
2019-05-25T23:45:08.736Z,75.60
2019-05-25T23:47:36.231Z,75.93
2019-05-25T23:50:05.581Z,75.90
2019-05-25T23:52:33.035Z,76.09
2019-05-25T23:55:04.189Z,75.95
2019-05-25T23:57:28.041Z,75.99
2019-05-25T23:59:55.651Z,76.25
